sensor_id;sensor_type;location;lat;lon;timestamp;P1;durP1;ratioP1;P2;durP2;ratioP2
18455;SDS011;9357;49.900;8.208;2023-12-20T00:01:30;6.10;;;4.85;;
18455;SDS011;9357;49.900;8.208;2023-12-20T00:03:03;5.95;;;5.22;;
18455;SDS011;9357;49.900;8.208;2023-12-20T00:04:36;7.25;;;5.15;;
18455;SDS011;9357;49.900;8.208;2023-12-20T00:06:08;6.07;;;4.90;;
18455;SDS011;9357;49.900;8.208;2023-12-20T00:07:41;7.13;;;5.15;;
18455;SDS011;9357;49.900;8.208;2023-12-20T00:09:13;6.32;;;4.88;;
18455;SDS011;9357;49.900;8.208;2023-12-20T00:10:46;5.70;;;4.88;;
18455;SDS011;9357;49.900;8.208;2023-12-20T00:12:19;6.25;;;4.70;;
18455;SDS011;9357;49.900;8.208;2023-12-20T00:13:52;5.80;;;4.75;;
18455;SDS011;9357;49.900;8.208;2023-12-20T00:15:24;6.18;;;4.90;;
18455;SDS011;9357;49.900;8.208;2023-12-20T00:16:56;6.03;;;4.50;;
18455;SDS011;9357;49.900;8.208;2023-12-20T00:18:28;5.88;;;4.38;;
18455;SDS011;9357;49.900;8.208;2023-12-20T00:20:01;4.97;;;4.47;;
18455;SDS011;9357;49.900;8.208;2023-12-20T00:21:33;5.65;;;4.85;;
18455;SDS011;9357;49.900;8.208;2023-12-20T00:23:06;7.18;;;5.00;;
18455;SDS011;9357;49.900;8.208;2023-12-20T00:24:39;6.45;;;4.80;;
18455;SDS011;9357;49.900;8.208;2023-12-20T00:26:12;4.90;;;4.40;;
18455;SDS011;9357;49.900;8.208;2023-12-20T00:27:45;4.57;;;4.13;;
18455;SDS011;9357;49.900;8.208;2023-12-20T00:29:18;7.05;;;4.20;;
18455;SDS011;9357;49.900;8.208;2023-12-20T00:30:50;4.97;;;4.38;;
18455;SDS011;9357;49.900;8.208;2023-12-20T00:32:23;5.13;;;4.38;;
18455;SDS011;9357;49.900;8.208;2023-12-20T00:33:54;5.97;;;4.72;;
18455;SDS011;9357;49.900;8.208;2023-12-20T00:35:27;5.00;;;4.50;;
18455;SDS011;9357;49.900;8.208;2023-12-20T00:36:59;4.72;;;4.22;;
18455;SDS011;9357;49.900;8.208;2023-12-20T00:38:32;4.70;;;4.20;;
18455;SDS011;9357;49.900;8.208;2023-12-20T00:40:04;5.15;;;4.20;;
18455;SDS011;9357;49.900;8.208;2023-12-20T00:41:38;5.30;;;3.92;;
18455;SDS011;9357;49.900;8.208;2023-12-20T00:43:11;5.07;;;4.22;;
18455;SDS011;9357;49.900;8.208;2023-12-20T00:44:44;4.68;;;4.13;;
18455;SDS011;9357;49.900;8.208;2023-12-20T00:46:16;6.05;;;4.35;;
18455;SDS011;9357;49.900;8.208;2023-12-20T00:47:50;5.03;;;4.18;;
18455;SDS011;9357;49.900;8.208;2023-12-20T00:49:23;5.25;;;4.38;;
18455;SDS011;9357;49.900;8.208;2023-12-20T00:50:56;5.35;;;4.32;;
18455;SDS011;9357;49.900;8.208;2023-12-20T00:52:28;5.50;;;4.18;;
18455;SDS011;9357;49.900;8.208;2023-12-20T00:54:01;4.90;;;3.90;;
18455;SDS011;9357;49.900;8.208;2023-12-20T00:55:34;4.63;;;4.15;;
18455;SDS011;9357;49.900;8.208;2023-12-20T00:57:05;4.80;;;4.30;;
18455;SDS011;9357;49.900;8.208;2023-12-20T00:58:39;5.03;;;4.13;;
18455;SDS011;9357;49.900;8.208;2023-12-20T01:00:12;4.10;;;3.70;;
18455;SDS011;9357;49.900;8.208;2023-12-20T01:01:45;5.07;;;4.00;;
18455;SDS011;9357;49.900;8.208;2023-12-20T01:03:17;4.95;;;4.38;;
18455;SDS011;9357;49.900;8.208;2023-12-20T01:04:50;4.78;;;4.00;;
18455;SDS011;9357;49.900;8.208;2023-12-20T01:06:23;4.47;;;4.07;;
18455;SDS011;9357;49.900;8.208;2023-12-20T01:07:54;6.63;;;4.07;;
18455;SDS011;9357;49.900;8.208;2023-12-20T01:09:27;4.97;;;4.18;;
18455;SDS011;9357;49.900;8.208;2023-12-20T01:10:59;4.82;;;4.18;;
18455;SDS011;9357;49.900;8.208;2023-12-20T01:12:31;4.80;;;3.97;;
18455;SDS011;9357;49.900;8.208;2023-12-20T01:14:04;6.35;;;4.25;;
18455;SDS011;9357;49.900;8.208;2023-12-20T01:15:37;4.38;;;3.70;;
18455;SDS011;9357;49.900;8.208;2023-12-20T01:17:09;4.70;;;3.80;;
18455;SDS011;9357;49.900;8.208;2023-12-20T01:18:42;5.85;;;4.47;;
18455;SDS011;9357;49.900;8.208;2023-12-20T01:20:14;5.70;;;4.07;;
18455;SDS011;9357;49.900;8.208;2023-12-20T01:21:47;5.00;;;4.50;;
18455;SDS011;9357;49.900;8.208;2023-12-20T01:23:18;5.90;;;4.45;;
18455;SDS011;9357;49.900;8.208;2023-12-20T01:24:51;6.82;;;4.65;;
18455;SDS011;9357;49.900;8.208;2023-12-20T01:26:23;5.70;;;4.13;;
18455;SDS011;9357;49.900;8.208;2023-12-20T01:27:56;6.68;;;4.32;;
18455;SDS011;9357;49.900;8.208;2023-12-20T01:29:29;5.60;;;4.13;;
18455;SDS011;9357;49.900;8.208;2023-12-20T01:31:01;4.40;;;3.88;;
18455;SDS011;9357;49.900;8.208;2023-12-20T01:32:33;6.10;;;4.07;;
18455;SDS011;9357;49.900;8.208;2023-12-20T01:34:06;5.07;;;4.38;;
18455;SDS011;9357;49.900;8.208;2023-12-20T01:35:38;5.75;;;3.83;;
18455;SDS011;9357;49.900;8.208;2023-12-20T01:37:11;5.32;;;4.32;;
18455;SDS011;9357;49.900;8.208;2023-12-20T01:38:43;4.75;;;4.07;;
18455;SDS011;9357;49.900;8.208;2023-12-20T01:40:15;6.75;;;4.18;;
18455;SDS011;9357;49.900;8.208;2023-12-20T01:41:47;6.28;;;3.97;;
18455;SDS011;9357;49.900;8.208;2023-12-20T01:43:20;4.43;;;3.85;;
18455;SDS011;9357;49.900;8.208;2023-12-20T01:44:57;3.92;;;3.53;;
18455;SDS011;9357;49.900;8.208;2023-12-20T01:46:30;4.15;;;3.75;;
18455;SDS011;9357;49.900;8.208;2023-12-20T01:48:03;4.47;;;3.78;;
18455;SDS011;9357;49.900;8.208;2023-12-20T01:49:36;4.32;;;3.92;;
18455;SDS011;9357;49.900;8.208;2023-12-20T01:51:09;3.80;;;3.40;;
18455;SDS011;9357;49.900;8.208;2023-12-20T01:52:42;3.90;;;3.47;;
18455;SDS011;9357;49.900;8.208;2023-12-20T01:54:15;4.10;;;3.70;;
18455;SDS011;9357;49.900;8.208;2023-12-20T01:55:47;4.32;;;3.53;;
18455;SDS011;9357;49.900;8.208;2023-12-20T01:57:22;4.55;;;3.67;;
18455;SDS011;9357;49.900;8.208;2023-12-20T01:58:54;5.13;;;3.83;;
18455;SDS011;9357;49.900;8.208;2023-12-20T02:00:30;3.80;;;3.50;;
18455;SDS011;9357;49.900;8.208;2023-12-20T02:02:02;4.10;;;3.63;;
18455;SDS011;9357;49.900;8.208;2023-12-20T02:03:35;3.80;;;3.20;;
18455;SDS011;9357;49.900;8.208;2023-12-20T02:05:08;4.15;;;3.63;;
18455;SDS011;9357;49.900;8.208;2023-12-20T02:06:41;3.72;;;3.30;;
18455;SDS011;9357;49.900;8.208;2023-12-20T02:08:14;4.30;;;3.72;;
18455;SDS011;9357;49.900;8.208;2023-12-20T02:09:47;4.03;;;3.40;;
18455;SDS011;9357;49.900;8.208;2023-12-20T02:11:19;3.50;;;3.20;;
18455;SDS011;9357;49.900;8.208;2023-12-20T02:12:53;3.67;;;3.38;;
18455;SDS011;9357;49.900;8.208;2023-12-20T02:14:25;3.53;;;3.20;;
18455;SDS011;9357;49.900;8.208;2023-12-20T02:15:59;4.30;;;3.40;;
18455;SDS011;9357;49.900;8.208;2023-12-20T02:17:31;3.60;;;3.30;;
18455;SDS011;9357;49.900;8.208;2023-12-20T02:19:05;3.80;;;3.15;;
18455;SDS011;9357;49.900;8.208;2023-12-20T02:20:42;3.70;;;3.20;;
18455;SDS011;9357;49.900;8.208;2023-12-20T02:22:16;3.53;;;3.22;;
18455;SDS011;9357;49.900;8.208;2023-12-20T02:23:48;3.75;;;3.10;;
18455;SDS011;9357;49.900;8.208;2023-12-20T02:25:20;3.50;;;3.20;;
18455;SDS011;9357;49.900;8.208;2023-12-20T02:26:52;3.70;;;3.40;;
18455;SDS011;9357;49.900;8.208;2023-12-20T02:28:25;4.20;;;3.42;;
18455;SDS011;9357;49.900;8.208;2023-12-20T02:29:58;3.55;;;3.22;;
18455;SDS011;9357;49.900;8.208;2023-12-20T02:31:30;3.30;;;3.00;;
18455;SDS011;9357;49.900;8.208;2023-12-20T02:33:03;4.72;;;3.20;;
18455;SDS011;9357;49.900;8.208;2023-12-20T02:34:39;3.67;;;3.13;;
18455;SDS011;9357;49.900;8.208;2023-12-20T02:36:11;3.10;;;2.80;;
18455;SDS011;9357;49.900;8.208;2023-12-20T02:37:45;4.00;;;3.10;;
18455;SDS011;9357;49.900;8.208;2023-12-20T02:39:17;3.40;;;3.10;;
18455;SDS011;9357;49.900;8.208;2023-12-20T02:40:50;3.42;;;3.13;;
18455;SDS011;9357;49.900;8.208;2023-12-20T02:42:22;3.45;;;3.13;;
18455;SDS011;9357;49.900;8.208;2023-12-20T02:43:55;3.72;;;3.20;;
18455;SDS011;9357;49.900;8.208;2023-12-20T02:45:27;3.40;;;3.10;;
18455;SDS011;9357;49.900;8.208;2023-12-20T02:46:59;3.42;;;3.13;;
18455;SDS011;9357;49.900;8.208;2023-12-20T02:48:31;4.15;;;3.00;;
18455;SDS011;9357;49.900;8.208;2023-12-20T02:50:04;4.15;;;3.50;;
18455;SDS011;9357;49.900;8.208;2023-12-20T02:51:37;4.53;;;3.33;;
18455;SDS011;9357;49.900;8.208;2023-12-20T02:53:11;3.95;;;3.53;;
18455;SDS011;9357;49.900;8.208;2023-12-20T02:54:43;4.28;;;3.60;;
18455;SDS011;9357;49.900;8.208;2023-12-20T02:56:16;4.85;;;3.40;;
18455;SDS011;9357;49.900;8.208;2023-12-20T02:57:47;4.68;;;3.17;;
18455;SDS011;9357;49.900;8.208;2023-12-20T02:59:21;4.65;;;3.28;;
18455;SDS011;9357;49.900;8.208;2023-12-20T03:00:52;3.55;;;3.25;;
18455;SDS011;9357;49.900;8.208;2023-12-20T03:02:25;3.38;;;3.08;;
18455;SDS011;9357;49.900;8.208;2023-12-20T03:03:58;3.05;;;2.75;;
18455;SDS011;9357;49.900;8.208;2023-12-20T03:05:30;4.07;;;3.15;;
18455;SDS011;9357;49.900;8.208;2023-12-20T03:07:03;3.38;;;2.65;;
18455;SDS011;9357;49.900;8.208;2023-12-20T03:08:36;2.63;;;2.42;;
18455;SDS011;9357;49.900;8.208;2023-12-20T03:10:09;2.78;;;2.55;;
18455;SDS011;9357;49.900;8.208;2023-12-20T03:11:53;3.33;;;2.90;;
18455;SDS011;9357;49.900;8.208;2023-12-20T03:13:26;3.10;;;2.80;;
18455;SDS011;9357;49.900;8.208;2023-12-20T03:14:58;3.10;;;2.80;;
18455;SDS011;9357;49.900;8.208;2023-12-20T03:16:30;2.70;;;2.50;;
18455;SDS011;9357;49.900;8.208;2023-12-20T03:18:07;3.35;;;2.63;;
18455;SDS011;9357;49.900;8.208;2023-12-20T03:19:39;2.80;;;2.53;;
18455;SDS011;9357;49.900;8.208;2023-12-20T03:21:11;2.65;;;2.42;;
18455;SDS011;9357;49.900;8.208;2023-12-20T03:22:44;2.97;;;2.60;;
18455;SDS011;9357;49.900;8.208;2023-12-20T03:24:18;2.50;;;2.30;;
18455;SDS011;9357;49.900;8.208;2023-12-20T03:25:51;2.83;;;2.42;;
18455;SDS011;9357;49.900;8.208;2023-12-20T03:27:23;2.40;;;2.20;;
18455;SDS011;9357;49.900;8.208;2023-12-20T03:28:55;2.70;;;2.50;;
18455;SDS011;9357;49.900;8.208;2023-12-20T03:30:28;2.70;;;2.35;;
18455;SDS011;9357;49.900;8.208;2023-12-20T03:32:00;2.50;;;2.30;;
18455;SDS011;9357;49.900;8.208;2023-12-20T03:33:32;2.63;;;2.35;;
18455;SDS011;9357;49.900;8.208;2023-12-20T03:35:04;2.72;;;2.53;;
18455;SDS011;9357;49.900;8.208;2023-12-20T03:36:38;3.15;;;2.80;;
18455;SDS011;9357;49.900;8.208;2023-12-20T03:38:10;2.95;;;2.70;;
18455;SDS011;9357;49.900;8.208;2023-12-20T03:39:44;3.70;;;2.88;;
18455;SDS011;9357;49.900;8.208;2023-12-20T03:41:15;3.60;;;2.90;;
18455;SDS011;9357;49.900;8.208;2023-12-20T03:42:48;2.80;;;2.60;;
18455;SDS011;9357;49.900;8.208;2023-12-20T03:44:20;4.30;;;2.85;;
18455;SDS011;9357;49.900;8.208;2023-12-20T03:45:53;3.22;;;2.70;;
18455;SDS011;9357;49.900;8.208;2023-12-20T03:47:25;3.58;;;2.60;;
18455;SDS011;9357;49.900;8.208;2023-12-20T03:48:58;2.40;;;2.20;;
18455;SDS011;9357;49.900;8.208;2023-12-20T03:50:32;2.47;;;2.28;;
18455;SDS011;9357;49.900;8.208;2023-12-20T03:52:06;2.63;;;2.30;;
18455;SDS011;9357;49.900;8.208;2023-12-20T03:53:37;2.58;;;2.38;;
18455;SDS011;9357;49.900;8.208;2023-12-20T03:55:13;2.65;;;2.45;;
18455;SDS011;9357;49.900;8.208;2023-12-20T03:56:45;2.92;;;2.63;;
18455;SDS011;9357;49.900;8.208;2023-12-20T03:58:17;2.75;;;2.50;;
18455;SDS011;9357;49.900;8.208;2023-12-20T03:59:49;2.38;;;2.17;;
18455;SDS011;9357;49.900;8.208;2023-12-20T04:01:22;2.70;;;2.50;;
18455;SDS011;9357;49.900;8.208;2023-12-20T04:02:54;2.40;;;2.20;;
18455;SDS011;9357;49.900;8.208;2023-12-20T04:04:26;2.97;;;2.75;;
18455;SDS011;9357;49.900;8.208;2023-12-20T04:05:58;3.33;;;2.80;;
18455;SDS011;9357;49.900;8.208;2023-12-20T04:07:31;4.32;;;3.03;;
18455;SDS011;9357;49.900;8.208;2023-12-20T04:09:03;6.53;;;3.83;;
18455;SDS011;9357;49.900;8.208;2023-12-20T04:10:37;4.57;;;2.97;;
18455;SDS011;9357;49.900;8.208;2023-12-20T04:12:09;3.45;;;2.80;;
18455;SDS011;9357;49.900;8.208;2023-12-20T04:13:42;4.50;;;3.40;;
18455;SDS011;9357;49.900;8.208;2023-12-20T04:15:14;3.00;;;2.70;;
18455;SDS011;9357;49.900;8.208;2023-12-20T04:16:47;2.75;;;2.53;;
18455;SDS011;9357;49.900;8.208;2023-12-20T04:18:18;2.97;;;2.72;;
18455;SDS011;9357;49.900;8.208;2023-12-20T04:19:51;3.30;;;2.80;;
18455;SDS011;9357;49.900;8.208;2023-12-20T04:21:23;3.33;;;2.53;;
18455;SDS011;9357;49.900;8.208;2023-12-20T04:22:56;2.83;;;2.63;;
18455;SDS011;9357;49.900;8.208;2023-12-20T04:24:28;3.10;;;2.80;;
18455;SDS011;9357;49.900;8.208;2023-12-20T04:26:02;3.00;;;2.25;;
18455;SDS011;9357;49.900;8.208;2023-12-20T04:27:34;2.60;;;2.40;;
18455;SDS011;9357;49.900;8.208;2023-12-20T04:29:07;2.58;;;2.35;;
18455;SDS011;9357;49.900;8.208;2023-12-20T04:30:40;2.45;;;2.25;;
18455;SDS011;9357;49.900;8.208;2023-12-20T04:32:12;2.30;;;2.10;;
18455;SDS011;9357;49.900;8.208;2023-12-20T04:33:45;2.50;;;2.30;;
18455;SDS011;9357;49.900;8.208;2023-12-20T04:35:16;2.50;;;2.30;;
18455;SDS011;9357;49.900;8.208;2023-12-20T04:36:49;2.70;;;2.50;;
18455;SDS011;9357;49.900;8.208;2023-12-20T04:38:22;2.67;;;2.47;;
18455;SDS011;9357;49.900;8.208;2023-12-20T04:39:55;3.17;;;2.15;;
18455;SDS011;9357;49.900;8.208;2023-12-20T04:41:28;2.40;;;2.20;;
18455;SDS011;9357;49.900;8.208;2023-12-20T04:43:01;2.42;;;2.22;;
18455;SDS011;9357;49.900;8.208;2023-12-20T04:44:32;2.15;;;1.95;;
18455;SDS011;9357;49.900;8.208;2023-12-20T04:46:05;2.30;;;2.10;;
18455;SDS011;9357;49.900;8.208;2023-12-20T04:47:38;2.20;;;2.00;;
18455;SDS011;9357;49.900;8.208;2023-12-20T04:49:10;2.10;;;2.00;;
18455;SDS011;9357;49.900;8.208;2023-12-20T04:50:42;4.10;;;2.20;;
18455;SDS011;9357;49.900;8.208;2023-12-20T04:52:15;3.33;;;2.10;;
18455;SDS011;9357;49.900;8.208;2023-12-20T04:53:47;2.30;;;2.10;;
18455;SDS011;9357;49.900;8.208;2023-12-20T04:55:20;2.50;;;2.30;;
18455;SDS011;9357;49.900;8.208;2023-12-20T04:56:53;2.30;;;2.10;;
18455;SDS011;9357;49.900;8.208;2023-12-20T04:58:26;2.10;;;2.00;;
18455;SDS011;9357;49.900;8.208;2023-12-20T04:59:58;3.28;;;2.45;;
18455;SDS011;9357;49.900;8.208;2023-12-20T05:01:30;3.00;;;1.92;;
18455;SDS011;9357;49.900;8.208;2023-12-20T05:03:02;4.60;;;2.20;;
18455;SDS011;9357;49.900;8.208;2023-12-20T05:04:35;2.40;;;2.10;;
18455;SDS011;9357;49.900;8.208;2023-12-20T05:06:07;3.08;;;2.40;;
18455;SDS011;9357;49.900;8.208;2023-12-20T05:07:40;3.22;;;2.42;;
18455;SDS011;9357;49.900;8.208;2023-12-20T05:09:12;3.60;;;2.30;;
18455;SDS011;9357;49.900;8.208;2023-12-20T05:10:45;2.50;;;2.30;;
18455;SDS011;9357;49.900;8.208;2023-12-20T05:12:18;3.05;;;2.15;;
18455;SDS011;9357;49.900;8.208;2023-12-20T05:13:51;4.03;;;2.10;;
18455;SDS011;9357;49.900;8.208;2023-12-20T05:15:22;3.38;;;2.30;;
18455;SDS011;9357;49.900;8.208;2023-12-20T05:16:55;3.47;;;1.90;;
18455;SDS011;9357;49.900;8.208;2023-12-20T05:18:27;3.58;;;2.30;;
18455;SDS011;9357;49.900;8.208;2023-12-20T05:20:00;3.65;;;2.30;;
18455;SDS011;9357;49.900;8.208;2023-12-20T05:21:32;3.30;;;2.30;;
18455;SDS011;9357;49.900;8.208;2023-12-20T05:23:05;2.53;;;2.10;;
18455;SDS011;9357;49.900;8.208;2023-12-20T05:24:38;2.30;;;2.10;;
18455;SDS011;9357;49.900;8.208;2023-12-20T05:26:11;2.45;;;1.90;;
18455;SDS011;9357;49.900;8.208;2023-12-20T05:27:45;4.32;;;2.00;;
18455;SDS011;9357;49.900;8.208;2023-12-20T05:29:18;5.60;;;2.22;;
18455;SDS011;9357;49.900;8.208;2023-12-20T05:30:51;5.07;;;2.35;;
18455;SDS011;9357;49.900;8.208;2023-12-20T05:32:23;6.13;;;2.38;;
18455;SDS011;9357;49.900;8.208;2023-12-20T05:33:56;5.00;;;2.17;;
18455;SDS011;9357;49.900;8.208;2023-12-20T05:35:28;5.43;;;2.08;;
18455;SDS011;9357;49.900;8.208;2023-12-20T05:37:01;6.78;;;1.88;;
18455;SDS011;9357;49.900;8.208;2023-12-20T05:38:33;5.25;;;1.88;;
18455;SDS011;9357;49.900;8.208;2023-12-20T05:40:06;4.00;;;1.80;;
18455;SDS011;9357;49.900;8.208;2023-12-20T05:41:41;4.45;;;1.90;;
18455;SDS011;9357;49.900;8.208;2023-12-20T05:43:15;6.25;;;2.13;;
18455;SDS011;9357;49.900;8.208;2023-12-20T05:44:48;5.22;;;1.98;;
18455;SDS011;9357;49.900;8.208;2023-12-20T05:46:23;4.35;;;2.10;;
18455;SDS011;9357;49.900;8.208;2023-12-20T05:47:56;7.30;;;2.20;;
18455;SDS011;9357;49.900;8.208;2023-12-20T05:49:28;3.45;;;1.55;;
18455;SDS011;9357;49.900;8.208;2023-12-20T05:51:01;6.18;;;2.20;;
18455;SDS011;9357;49.900;8.208;2023-12-20T05:52:33;8.35;;;2.30;;
18455;SDS011;9357;49.900;8.208;2023-12-20T05:54:05;6.07;;;2.28;;
18455;SDS011;9357;49.900;8.208;2023-12-20T05:55:37;5.72;;;2.00;;
18455;SDS011;9357;49.900;8.208;2023-12-20T05:57:10;4.97;;;2.30;;
18455;SDS011;9357;49.900;8.208;2023-12-20T05:58:43;2.92;;;1.90;;
18455;SDS011;9357;49.900;8.208;2023-12-20T06:00:16;6.07;;;2.20;;
18455;SDS011;9357;49.900;8.208;2023-12-20T06:01:49;5.60;;;2.20;;
18455;SDS011;9357;49.900;8.208;2023-12-20T06:03:21;4.55;;;2.47;;
18455;SDS011;9357;49.900;8.208;2023-12-20T06:04:54;3.13;;;1.90;;
18455;SDS011;9357;49.900;8.208;2023-12-20T06:06:27;3.50;;;1.80;;
18455;SDS011;9357;49.900;8.208;2023-12-20T06:07:59;6.05;;;2.05;;
18455;SDS011;9357;49.900;8.208;2023-12-20T06:09:34;5.07;;;2.15;;
18455;SDS011;9357;49.900;8.208;2023-12-20T06:11:06;7.43;;;2.28;;
18455;SDS011;9357;49.900;8.208;2023-12-20T06:12:39;5.18;;;2.00;;
18455;SDS011;9357;49.900;8.208;2023-12-20T06:14:12;5.00;;;2.00;;
18455;SDS011;9357;49.900;8.208;2023-12-20T06:15:45;2.67;;;2.17;;
18455;SDS011;9357;49.900;8.208;2023-12-20T06:17:17;6.20;;;2.20;;
18455;SDS011;9357;49.900;8.208;2023-12-20T06:18:49;3.90;;;2.10;;
18455;SDS011;9357;49.900;8.208;2023-12-20T06:20:22;3.13;;;1.95;;
18455;SDS011;9357;49.900;8.208;2023-12-20T06:21:54;3.97;;;1.85;;
18455;SDS011;9357;49.900;8.208;2023-12-20T06:23:27;3.22;;;2.03;;
18455;SDS011;9357;49.900;8.208;2023-12-20T06:24:59;5.22;;;2.10;;
18455;SDS011;9357;49.900;8.208;2023-12-20T06:26:32;5.03;;;2.00;;
18455;SDS011;9357;49.900;8.208;2023-12-20T06:28:04;5.90;;;2.08;;
18455;SDS011;9357;49.900;8.208;2023-12-20T06:29:38;5.55;;;2.30;;
18455;SDS011;9357;49.900;8.208;2023-12-20T06:31:11;5.47;;;2.30;;
18455;SDS011;9357;49.900;8.208;2023-12-20T06:32:44;5.03;;;2.17;;
18455;SDS011;9357;49.900;8.208;2023-12-20T06:34:18;8.07;;;1.88;;
18455;SDS011;9357;49.900;8.208;2023-12-20T06:35:50;7.90;;;2.08;;
18455;SDS011;9357;49.900;8.208;2023-12-20T06:37:22;3.35;;;1.90;;
18455;SDS011;9357;49.900;8.208;2023-12-20T06:38:56;4.90;;;2.03;;
18455;SDS011;9357;49.900;8.208;2023-12-20T06:40:29;6.55;;;2.33;;
18455;SDS011;9357;49.900;8.208;2023-12-20T06:42:01;3.08;;;2.05;;
18455;SDS011;9357;49.900;8.208;2023-12-20T06:43:34;5.28;;;2.00;;
18455;SDS011;9357;49.900;8.208;2023-12-20T06:45:21;4.10;;;2.08;;
18455;SDS011;9357;49.900;8.208;2023-12-20T06:46:53;4.43;;;2.03;;
18455;SDS011;9357;49.900;8.208;2023-12-20T06:48:26;5.95;;;2.60;;
18455;SDS011;9357;49.900;8.208;2023-12-20T06:49:58;4.50;;;2.00;;
18455;SDS011;9357;49.900;8.208;2023-12-20T06:51:32;6.57;;;2.28;;
18455;SDS011;9357;49.900;8.208;2023-12-20T06:53:03;3.33;;;2.00;;
18455;SDS011;9357;49.900;8.208;2023-12-20T06:54:38;5.35;;;2.33;;
18455;SDS011;9357;49.900;8.208;2023-12-20T06:56:10;6.05;;;2.20;;
18455;SDS011;9357;49.900;8.208;2023-12-20T06:57:48;6.05;;;2.10;;
18455;SDS011;9357;49.900;8.208;2023-12-20T06:59:20;4.53;;;1.85;;
18455;SDS011;9357;49.900;8.208;2023-12-20T07:00:54;2.25;;;2.00;;
18455;SDS011;9357;49.900;8.208;2023-12-20T07:02:26;7.70;;;2.17;;
18455;SDS011;9357;49.900;8.208;2023-12-20T07:04:01;4.93;;;2.20;;
18455;SDS011;9357;49.900;8.208;2023-12-20T07:05:33;2.67;;;1.80;;
18455;SDS011;9357;49.900;8.208;2023-12-20T07:07:06;5.70;;;1.80;;
18455;SDS011;9357;49.900;8.208;2023-12-20T07:08:38;5.50;;;1.75;;
18455;SDS011;9357;49.900;8.208;2023-12-20T07:10:12;4.20;;;2.00;;
18455;SDS011;9357;49.900;8.208;2023-12-20T07:11:45;6.57;;;2.25;;
18455;SDS011;9357;49.900;8.208;2023-12-20T07:13:18;4.93;;;1.60;;
18455;SDS011;9357;49.900;8.208;2023-12-20T07:14:49;5.00;;;2.13;;
18455;SDS011;9357;49.900;8.208;2023-12-20T07:16:24;6.63;;;2.05;;
18455;SDS011;9357;49.900;8.208;2023-12-20T07:17:56;5.68;;;1.65;;
18455;SDS011;9357;49.900;8.208;2023-12-20T07:19:31;4.15;;;1.77;;
18455;SDS011;9357;49.900;8.208;2023-12-20T07:21:04;5.88;;;2.22;;
18455;SDS011;9357;49.900;8.208;2023-12-20T07:22:35;6.60;;;2.30;;
18455;SDS011;9357;49.900;8.208;2023-12-20T07:24:08;5.35;;;1.90;;
18455;SDS011;9357;49.900;8.208;2023-12-20T07:25:40;6.50;;;1.90;;
18455;SDS011;9357;49.900;8.208;2023-12-20T07:27:13;2.88;;;1.70;;
18455;SDS011;9357;49.900;8.208;2023-12-20T07:28:44;5.97;;;2.17;;
18455;SDS011;9357;49.900;8.208;2023-12-20T07:30:17;5.25;;;1.70;;
18455;SDS011;9357;49.900;8.208;2023-12-20T07:31:50;4.32;;;1.95;;
18455;SDS011;9357;49.900;8.208;2023-12-20T07:33:25;3.28;;;1.70;;
18455;SDS011;9357;49.900;8.208;2023-12-20T07:34:56;6.25;;;2.20;;
18455;SDS011;9357;49.900;8.208;2023-12-20T07:36:29;6.40;;;2.38;;
18455;SDS011;9357;49.900;8.208;2023-12-20T07:38:02;3.55;;;2.10;;
18455;SDS011;9357;49.900;8.208;2023-12-20T07:39:34;8.73;;;2.55;;
18455;SDS011;9357;49.900;8.208;2023-12-20T07:41:08;7.57;;;2.30;;
18455;SDS011;9357;49.900;8.208;2023-12-20T07:42:41;3.47;;;2.05;;
18455;SDS011;9357;49.900;8.208;2023-12-20T07:44:13;4.78;;;2.20;;
18455;SDS011;9357;49.900;8.208;2023-12-20T07:45:46;5.40;;;2.00;;
18455;SDS011;9357;49.900;8.208;2023-12-20T07:47:19;4.63;;;1.90;;
18455;SDS011;9357;49.900;8.208;2023-12-20T07:48:53;5.95;;;2.40;;
18455;SDS011;9357;49.900;8.208;2023-12-20T07:50:25;4.60;;;2.03;;
18455;SDS011;9357;49.900;8.208;2023-12-20T07:51:58;4.05;;;2.00;;
18455;SDS011;9357;49.900;8.208;2023-12-20T07:53:30;6.32;;;2.40;;
18455;SDS011;9357;49.900;8.208;2023-12-20T07:55:03;8.18;;;2.20;;
18455;SDS011;9357;49.900;8.208;2023-12-20T07:56:36;7.10;;;2.42;;
18455;SDS011;9357;49.900;8.208;2023-12-20T07:58:11;10.20;;;2.33;;
18455;SDS011;9357;49.900;8.208;2023-12-20T07:59:42;5.72;;;2.30;;
18455;SDS011;9357;49.900;8.208;2023-12-20T08:01:16;5.47;;;2.30;;
18455;SDS011;9357;49.900;8.208;2023-12-20T08:02:50;7.55;;;2.38;;
18455;SDS011;9357;49.900;8.208;2023-12-20T08:04:22;4.95;;;2.63;;
18455;SDS011;9357;49.900;8.208;2023-12-20T08:05:54;7.80;;;2.83;;
18455;SDS011;9357;49.900;8.208;2023-12-20T08:07:27;7.53;;;3.00;;
18455;SDS011;9357;49.900;8.208;2023-12-20T08:08:59;7.53;;;2.92;;
18455;SDS011;9357;49.900;8.208;2023-12-20T08:10:37;5.75;;;2.92;;
18455;SDS011;9357;49.900;8.208;2023-12-20T08:12:10;3.78;;;2.15;;
18455;SDS011;9357;49.900;8.208;2023-12-20T08:13:42;7.50;;;2.58;;
18455;SDS011;9357;49.900;8.208;2023-12-20T08:15:14;6.43;;;2.30;;
18455;SDS011;9357;49.900;8.208;2023-12-20T08:16:46;5.57;;;2.72;;
18455;SDS011;9357;49.900;8.208;2023-12-20T08:18:20;6.78;;;2.30;;
18455;SDS011;9357;49.900;8.208;2023-12-20T08:19:52;9.43;;;2.47;;
18455;SDS011;9357;49.900;8.208;2023-12-20T08:21:25;6.07;;;2.25;;
18455;SDS011;9357;49.900;8.208;2023-12-20T08:22:57;2.88;;;2.00;;
18455;SDS011;9357;49.900;8.208;2023-12-20T08:24:30;7.40;;;2.22;;
18455;SDS011;9357;49.900;8.208;2023-12-20T08:26:03;6.35;;;2.30;;
18455;SDS011;9357;49.900;8.208;2023-12-20T08:27:38;7.10;;;2.05;;
18455;SDS011;9357;49.900;8.208;2023-12-20T08:29:12;5.95;;;2.40;;
18455;SDS011;9357;49.900;8.208;2023-12-20T08:30:45;5.03;;;2.03;;
18455;SDS011;9357;49.900;8.208;2023-12-20T08:32:17;8.85;;;2.42;;
18455;SDS011;9357;49.900;8.208;2023-12-20T08:33:51;4.32;;;2.20;;
18455;SDS011;9357;49.900;8.208;2023-12-20T08:35:25;10.13;;;2.40;;
18455;SDS011;9357;49.900;8.208;2023-12-20T08:36:57;8.77;;;2.50;;
18455;SDS011;9357;49.900;8.208;2023-12-20T08:38:29;7.03;;;2.10;;
18455;SDS011;9357;49.900;8.208;2023-12-20T08:40:01;6.00;;;1.80;;
18455;SDS011;9357;49.900;8.208;2023-12-20T08:41:34;5.03;;;2.20;;
18455;SDS011;9357;49.900;8.208;2023-12-20T08:43:06;5.50;;;2.10;;
18455;SDS011;9357;49.900;8.208;2023-12-20T08:44:39;4.72;;;1.90;;
18455;SDS011;9357;49.900;8.208;2023-12-20T08:46:11;6.13;;;2.00;;
18455;SDS011;9357;49.900;8.208;2023-12-20T08:47:45;4.30;;;2.17;;
18455;SDS011;9357;49.900;8.208;2023-12-20T08:49:19;8.82;;;2.53;;
18455;SDS011;9357;49.900;8.208;2023-12-20T08:50:52;6.10;;;2.33;;
18455;SDS011;9357;49.900;8.208;2023-12-20T08:52:23;4.45;;;1.95;;
18455;SDS011;9357;49.900;8.208;2023-12-20T08:53:58;5.80;;;2.00;;
18455;SDS011;9357;49.900;8.208;2023-12-20T08:55:30;5.68;;;2.13;;
18455;SDS011;9357;49.900;8.208;2023-12-20T08:57:03;6.95;;;2.05;;
18455;SDS011;9357;49.900;8.208;2023-12-20T08:58:37;7.22;;;2.58;;
18455;SDS011;9357;49.900;8.208;2023-12-20T09:00:11;6.47;;;2.40;;
18455;SDS011;9357;49.900;8.208;2023-12-20T09:01:44;5.72;;;2.50;;
18455;SDS011;9357;49.900;8.208;2023-12-20T09:03:17;9.00;;;2.03;;
18455;SDS011;9357;49.900;8.208;2023-12-20T09:04:50;5.82;;;2.10;;
18455;SDS011;9357;49.900;8.208;2023-12-20T09:06:23;6.10;;;2.50;;
18455;SDS011;9357;49.900;8.208;2023-12-20T09:07:56;4.97;;;2.40;;
18455;SDS011;9357;49.900;8.208;2023-12-20T09:09:29;7.53;;;2.05;;
18455;SDS011;9357;49.900;8.208;2023-12-20T09:11:03;6.88;;;2.20;;
18455;SDS011;9357;49.900;8.208;2023-12-20T09:12:36;7.07;;;1.90;;
18455;SDS011;9357;49.900;8.208;2023-12-20T09:14:11;5.47;;;2.30;;
18455;SDS011;9357;49.900;8.208;2023-12-20T09:15:43;7.20;;;2.53;;
18455;SDS011;9357;49.900;8.208;2023-12-20T09:17:16;8.18;;;2.78;;
18455;SDS011;9357;49.900;8.208;2023-12-20T09:18:48;8.20;;;2.30;;
18455;SDS011;9357;49.900;8.208;2023-12-20T09:20:22;7.60;;;2.20;;
18455;SDS011;9357;49.900;8.208;2023-12-20T09:21:55;4.40;;;2.22;;
18455;SDS011;9357;49.900;8.208;2023-12-20T09:23:27;6.57;;;2.10;;
18455;SDS011;9357;49.900;8.208;2023-12-20T09:25:00;3.70;;;2.05;;
18455;SDS011;9357;49.900;8.208;2023-12-20T09:26:33;5.70;;;2.00;;
18455;SDS011;9357;49.900;8.208;2023-12-20T09:28:05;7.50;;;2.45;;